Terminal Aerodrome Forecast
Issued by NWS Wakefield, VA

Home | Current Version | Previous Version | Text Only | Print | Product List | Glossary On
Versions: 1 2 3 4 5 6 7 8 9 10 11 12 13
327
FTUS41 KAKQ 220526
TAFORF
TAF
KORF 220526Z 2206/2306 VRB03KT P6SM SKC
     FM221200 30006KT P6SM SCT200
     FM221500 34008KT P6SM SCT200
     FM230000 VRB03KT P6SM SCT150=

USA.gov is the U.S. government's official web portal to all federal, state and local government web resources and services.